Latest Weather Observations for Trangie

IDN60801

Issued at 11:02 am EDT Thursday 21 November 2019 (issued every 10 minutes, with the page automatically refreshed every 10 minutes)

About weather observations | Map of weather stations | Latest weather observations for NSW | Other Formats
Station Details ID: 051049 Name: TRANGIE RESEARCH STATION AWS Lat: -31.99 Lon: 147.95 Height: 215.0 m
Data from the previous 72 hours. | See also: Recent months at Trangie
Date/Time
EDT
Temp
°C
App
Temp
°C
Dew
Point
°C
Rel
Hum
%
Delta-T
°C
Wind Press
QNH
hPa
Press
MSL
hPa
Rain since
9am
mm
Dir  Spd
km/h
Gust
km/h
Spd
kts
Gust
kts
21/11:00am 31.3 27.6 12.6 31 11.2 N 24 39 13 21 1013.8 1013.0 0.0
21/10:30am 30.3 27.1 13.1 34 10.3 NNE 22 33 12 18 1014.1 1013.3 0.0
21/10:00am 29.4 26.3 12.3 34 10.1 NNE 20 33 11 18 1014.3 1013.5 0.0
21/09:30am 27.6 23.4 11.2 36 9.4 NNE 24 39 13 21 1014.6 1013.8 0.0
21/09:00am 26.0 23.6 11.4 40 8.4 NE 15 20 8 11 1014.8 1014.0 0.0
21/08:30am 24.3 22.0 11.9 45 7.1 ENE 15 20 8 11 1015.0 1014.2 0.0
21/08:00am 22.5 20.6 11.9 51 6.0 ENE 13 20 7 11 1014.8 1014.0 0.0
21/07:30am 21.2 18.8 11.5 54 5.4 E 15 22 8 12 1014.4 1013.6 0.0
21/07:00am 20.5 18.1 11.4 56 5.1 E 15 24 8 13 1014.2 1013.4 0.0
21/06:30am 20.1 17.7 11.3 57 4.9 E 15 22 8 12 1014.0 1013.2 0.0
21/06:00am 20.0 17.5 11.0 56 5.0 E 15 22 8 12 1013.7 1012.8 0.0
21/05:30am 20.3 17.8 11.0 55 5.1 E 15 24 8 13 1013.4 1012.5 0.0
21/05:00am 20.6 18.0 10.7 53 5.5 E 15 28 8 15 1012.9 1012.1 0.0
21/04:30am 20.9 18.1 10.1 50 5.9 E 15 22 8 12 1012.8 1012.0 0.0
21/04:00am 21.4 18.6 9.9 48 6.3 E 15 20 8 11 1012.9 1012.1 0.0
21/03:30am 22.0 19.2 9.9 46 6.6 E 15 26 8 14 1013.0 1012.2 0.0
21/03:00am 22.5 19.6 9.6 44 7.0 E 15 24 8 13 1013.0 1012.2 0.0
21/02:30am 23.1 19.4 9.5 42 7.4 E 19 30 10 16 1012.8 1012.0 0.0
21/02:00am 23.9 20.0 9.5 40 7.9 E 20 32 11 17 1012.9 1012.1 0.0
21/01:30am 24.6 21.2 10.5 41 7.9 E 19 33 10 18 1013.1 1012.3 0.0
21/01:00am 25.4 21.4 10.4 39 8.4 E 22 32 12 17 1013.1 1012.3 0.0
21/12:30am 26.3 22.5 9.2 34 9.5 E 19 30 10 16 1013.3 1012.4 0.0
21/12:00am 27.2 23.8 7.6 29 10.6 E 15 28 8 15 1013.3 1012.4 0.0
 
Date/Time
EDT
Temp
°C
App
Temp
°C
Dew
Point
°C
Rel
Hum
%
Delta-T
°C
Wind Press
QNH
hPa
Press
MSL
hPa
Rain since
9am
mm
Dir  Spd
km/h
Gust
km/h
Spd
kts
Gust
kts
20/11:30pm 28.0 24.3 6.2 25 11.6 E 15 22 8 12 1013.0 1012.2 0.0
20/11:00pm 28.0 24.2 1.5 18 12.9 ESE 11 20 6 11 1012.9 1012.1 0.0
20/10:30pm 27.1 25.1 0.0 17 12.8 CALM 0 0 0 0 1012.4 1011.6 0.0
20/10:00pm 28.4 25.1 0.2 16 13.5 E 7 9 4 5 1012.3 1011.5 0.0
20/09:30pm 28.8 26.5 0.5 16 13.7 ESE 2 13 1 7 1012.1 1011.3 0.0
20/09:00pm 29.6 27.5 -0.7 14 14.4 CALM 0 0 0 0 1011.8 1011.0 0.0
20/08:30pm 30.4 28.3 -1.1 13 14.9 CALM 0 4 0 2 1011.4 1010.6 0.0
20/08:00pm 31.9 29.8 -1.0 12 15.8 CALM 0 6 0 3 1011.2 1010.4 0.0
20/07:30pm 34.8 31.1 -2.7 9 17.9 SSE 7 11 4 6 1010.9 1010.1 0.0
20/07:00pm 36.5 32.0 -3.0 8 19.0 SSE 11 22 6 12 1010.6 1009.8 0.0
20/06:30pm 37.1 33.1 -2.6 8 19.2 SSE 9 15 5 8 1010.3 1009.5 0.0
20/06:00pm 37.3 33.3 -2.4 8 19.4 ESE 9 13 5 7 1010.1 1009.3 0.0
20/05:30pm 37.3 31.8 -2.4 8 19.3 SSW 17 26 9 14 1010.1 1009.3 0.0
20/05:00pm 37.3 33.7 -2.4 8 19.4 ESE 7 11 4 6 1010.2 1009.4 0.0
20/04:30pm 36.9 32.8 -2.7 8 19.1 SW 9 17 5 9 1010.5 1009.7 0.0
20/04:00pm 37.3 32.5 -2.4 8 19.4 SSE 13 26 7 14 1010.6 1009.8 0.0
20/03:30pm 36.5 30.9 -3.0 8 19.0 S 17 22 9 12 1011.0 1010.2 0.0
20/03:00pm 36.3 31.2 -1.6 9 18.6 SSE 15 24 8 13 1011.2 1010.4 0.0
20/02:30pm 36.3 32.4 -1.6 9 18.6 SSE 9 22 5 12 1011.5 1010.7 0.0
20/02:00pm 35.7 31.5 -0.6 10 18.0 SE 11 20 6 11 1011.8 1011.0 0.0
20/01:30pm 35.1 30.3 -2.5 9 18.0 SSW 13 22 7 12 1012.3 1011.5 0.0
20/01:00pm 34.8 29.8 -1.3 10 17.6 SSE 15 24 8 13 1012.6 1011.8 0.0
20/12:30pm 34.6 30.7 -1.4 10 17.5 SE 9 19 5 10 1012.9 1012.1 0.0
20/12:00pm 33.9 29.3 -0.7 11 16.9 SSE 13 20 7 11 1013.3 1012.4 0.0
20/11:30am 33.4 29.5 1.3 13 16.2 ESE 11 17 6 9 1013.5 1012.6 0.0
20/11:00am 32.2 28.8 -0.8 12 15.9 ESE 7 15 4 8 1013.8 1013.0 0.0
20/10:30am 31.5 27.5 0.8 14 15.2 E 11 17 6 9 1013.9 1013.1 0.0
20/10:00am 30.2 26.9 2.5 17 14.0 E 9 15 5 8 1014.0 1013.2 0.0
20/09:30am 28.4 24.6 1.8 18 13.1 E 11 17 6 9 1014.1 1013.3 0.0
20/09:00am 27.6 23.2 0.4 17 13.0 E 13 19 7 10 1014.1 1013.3 0.0
20/08:30am 26.2 21.6 -0.8 17 12.5 E 13 17 7 9 1014.1 1013.3 0.0
20/08:00am 25.8 21.4 -2.8 15 12.7 E 11 17 6 9 1013.8 1013.0 0.0
20/07:30am 24.7 21.0 -2.8 16 12.1 ESE 7 15 4 8 1013.6 1012.7 0.0
20/07:00am 20.1 16.8 -1.1 24 9.3 SSE 6 9 3 5 1013.1 1012.3 0.0
20/06:30am 18.3 15.0 -1.0 27 8.3 SE 6 7 3 4 1013.1 1012.3 0.0
20/06:00am 18.1 15.9 -1.7 26 8.4 CALM 0 6 0 3 1012.8 1012.0 0.0
20/05:30am 18.0 15.4 -1.8 26 8.4 SE 2 6 1 3 1012.5 1011.7 0.0
20/05:00am 18.9 16.2 -2.1 24 8.9 SE 2 6 1 3 1012.1 1011.3 0.0
20/04:30am 19.7 16.2 -2.6 22 9.4 S 6 9 3 5 1011.8 1011.0 0.0
20/04:00am 19.4 15.9 -2.8 22 9.3 S 6 7 3 4 1011.7 1010.9 0.0
20/03:30am 19.4 16.0 -1.7 24 9.1 SSW 6 7 3 4 1011.5 1010.7 0.0
20/03:00am 19.4 15.4 -2.2 23 9.2 SW 9 11 5 6 1011.4 1010.6 0.0
20/02:30am 20.4 17.8 -2.0 22 9.6 S 2 7 1 4 1011.5 1010.7 0.0
20/02:00am 20.8 18.5 -2.3 21 9.9 CALM 0 0 0 0 1011.5 1010.7 0.0
20/01:30am 21.7 19.3 -2.9 19 10.5 CALM 0 0 0 0 1011.7 1010.9 0.0
20/01:00am 22.2 19.6 -1.8 20 10.6 SSW 2 6 1 3 1011.9 1011.1 0.0
20/12:30am 22.7 20.4 -2.1 19 10.9 CALM 0 0 0 0 1012.2 1011.4 0.0
20/12:00am 24.4 22.1 -2.2 17 11.8 CALM 0 6 0 3 1012.1 1011.3 0.0
 
Date/Time
EDT
Temp
°C
App
Temp
°C
Dew
Point
°C
Rel
Hum
%
Delta-T
°C
Wind Press
QNH
hPa
Press
MSL
hPa
Rain since
9am
mm
Dir  Spd
km/h
Gust
km/h
Spd
kts
Gust
kts
19/11:30pm 25.3 21.6 -3.2 15 12.5 SSW 7 9 4 5 1012.1 1011.3 0.0
19/11:00pm 25.6 21.9 -2.9 15 12.6 SW 7 7 4 4 1012.0 1011.2 0.0
19/10:30pm 25.7 22.0 -2.8 15 12.7 SW 7 9 4 5 1011.9 1011.1 0.0
19/10:00pm 26.7 22.6 -3.0 14 13.3 SSW 9 13 5 7 1011.8 1011.0 0.0
19/09:30pm 26.8 22.6 -3.9 13 13.5 W 9 11 5 6 1011.2 1010.4 0.0
19/09:00pm 28.6 24.4 -3.6 12 14.4 W 9 11 5 6 1010.8 1010.0 0.0
19/08:30pm 30.7 26.1 -4.4 10 15.8 W 11 11 6 6 1010.5 1009.7 0.0
19/08:00pm 32.5 27.1 -4.4 9 16.8 W 15 19 8 10 1010.4 1009.6 0.0
19/07:30pm 34.4 28.0 -4.6 8 18.0 WSW 20 28 11 15 1010.2 1009.4 0.0
19/07:00pm 35.8 28.6 -5.3 7 18.9 WSW 24 35 13 19 1010.0 1009.2 0.0
19/06:30pm 36.5 29.0 -4.8 7 19.3 WSW 26 37 14 20 1009.7 1008.9 0.0
19/06:00pm 36.6 29.1 -4.7 7 19.3 WSW 26 33 14 18 1009.6 1008.7 0.0
19/05:30pm 37.2 29.3 -4.3 7 19.6 WSW 28 41 15 22 1009.6 1008.7 0.0
19/05:00pm 37.1 30.8 -4.4 7 19.6 W 20 28 11 15 1009.7 1008.9 0.0
19/04:30pm 37.4 30.3 -4.2 7 19.7 WSW 24 39 13 21 1010.0 1009.2 0.0
19/04:00pm 36.5 29.0 -4.8 7 19.3 W 26 37 14 20 1010.4 1009.6 0.0
19/03:30pm 36.7 30.5 -4.7 7 19.4 WNW 19 30 10 16 1010.8 1010.0 0.0
19/03:00pm 35.7 28.3 -3.6 8 18.6 W 26 41 14 22 1011.4 1010.6 0.0
19/02:30pm 35.7 29.1 -3.6 8 18.6 W 22 37 12 20 1011.9 1011.1 0.0
19/02:00pm 34.8 27.7 -4.3 8 18.2 WNW 24 35 13 19 1012.3 1011.5 0.0
19/01:30pm 34.8 29.4 -4.3 8 18.2 WNW 15 30 8 16 1012.7 1011.9 0.0
19/01:00pm 34.3 29.1 -3.1 9 17.6 NW 15 28 8 15 1013.3 1012.4 0.0
19/12:30pm 33.6 27.9 -3.6 9 17.3 WNW 17 28 9 15 1013.7 1012.8 0.0
19/12:00pm 32.9 27.9 -4.1 9 17.0 W 13 22 7 12 1014.0 1013.2 0.0
19/11:30am 32.4 26.6 -4.5 9 16.8 NW 17 30 9 16 1014.4 1013.6 0.0
19/11:00am 32.0 26.3 -3.4 10 16.3 NW 17 28 9 15 1014.8 1014.0 0.0
19/10:30am 31.1 26.1 -4.1 10 15.9 NNW 13 20 7 11 1015.1 1014.3 0.0
19/10:00am 29.6 24.6 -3.9 11 15.0 NNW 13 20 7 11 1015.3 1014.5 0.0
19/09:30am 28.9 24.0 -3.3 12 14.5 NNW 13 20 7 11 1015.4 1014.6 0.0
19/09:00am 27.7 23.3 -2.2 14 13.6 N 11 15 6 8 1015.6 1014.8 0.0
19/08:30am 25.7 22.5 -0.4 18 12.1 N 6 9 3 5 1015.4 1014.6 0.0
19/08:00am 22.8 19.6 -0.6 21 10.6 NNE 6 9 3 5 1015.3 1014.5 0.0
19/07:30am 19.9 16.8 -0.1 26 8.9 NNE 6 7 3 4 1015.2 1014.4 0.0
19/07:00am 16.8 14.8 -0.4 31 7.4 CALM 0 0 0 0 1014.9 1014.1 0.0
19/06:30am 15.0 12.9 -0.7 34 6.6 CALM 0 0 0 0 1014.8 1014.0 0.0
19/06:00am 14.8 12.6 -1.7 32 6.8 CALM 0 0 0 0 1014.7 1013.9 0.0
19/05:30am 14.5 12.5 -0.4 36 6.3 CALM 0 0 0 0 1014.5 1013.7 0.0
19/05:00am 15.2 13.0 -1.4 32 6.9 CALM 0 0 0 0 1014.1 1013.3 0.0
19/04:30am 15.8 13.6 -1.3 31 7.2 CALM 0 0 0 0 1014.1 1013.3 0.0
19/04:00am 15.6 12.8 -0.2 34 6.8 SW 4 6 2 3 1014.3 1013.5 0.0
19/03:30am 15.0 11.6 -0.7 34 6.6 SW 7 9 4 5 1014.4 1013.6 0.0
19/03:00am 15.5 13.4 -1.1 32 7.0 CALM 0 0 0 0 1014.4 1013.6 0.0
19/02:30am 15.3 13.3 -0.4 34 6.7 CALM 0 0 0 0 1014.5 1013.7 0.0
19/02:00am 15.6 13.5 -0.6 33 6.9 CALM 0 0 0 0 1014.8 1014.0 0.0
19/01:30am 16.5 14.5 -0.2 32 7.2 CALM 0 0 0 0 1014.9 1014.1 0.0
19/01:00am 15.9 12.6 -1.2 31 7.2 NNW 6 7 3 4 1015.2 1014.4 0.0
19/12:30am 17.0 14.5 -1.1 29 7.7 NE 2 9 1 5 1015.4 1014.6 0.0
19/12:00am 18.3 14.8 -1.0 27 8.3 SE 7 11 4 6 1015.6 1014.8 0.0
 
Date/Time
EDT
Temp
°C
App
Temp
°C
Dew
Point
°C
Rel
Hum
%
Delta-T
°C
Wind Press
QNH
hPa
Press
MSL
hPa
Rain since
9am
mm
Dir  Spd
km/h
Gust
km/h
Spd
kts
Gust
kts
18/11:30pm 19.0 16.4 -2.0 24 8.9 S 2 6 1 3 1015.8 1015.0 0.0
18/11:00pm 19.7 16.3 -2.0 23 9.3 SW 6 7 3 4 1015.8 1015.0 0.0
18/10:30pm 19.8 17.7 -0.8 25 9.0 CALM 0 0 0 0 1015.8 1015.0 0.0
18/10:00pm 20.1 18.0 -0.5 25 9.1 CALM 0 0 0 0 1015.7 1014.9 0.0
18/09:30pm 21.5 19.4 -1.1 22 10.0 CALM 0 4 0 2 1015.4 1014.6 0.0
18/09:00pm 22.7 20.5 -1.4 20 10.7 CALM 0 0 0 0 1015.1 1014.3 0.0
18/08:30pm 23.4 20.4 -1.5 19 11.1 NW 4 6 2 3 1014.9 1014.1 0.0
18/08:00pm 25.1 22.8 -2.5 16 12.3 CALM 0 0 0 0 1014.8 1014.0 0.0
18/07:30pm 28.0 24.5 -3.0 13 14.0 WSW 6 11 3 6 1014.6 1013.8 0.0
18/07:00pm 29.1 25.6 -3.2 12 14.6 SW 6 11 3 6 1014.5 1013.7 0.0
18/06:30pm 29.4 25.8 -1.9 13 14.5 S 7 11 4 6 1014.4 1013.6 0.0
18/06:00pm 29.2 24.7 -3.1 12 14.7 SW 11 22 6 12 1014.4 1013.6 0.0
18/05:30pm 29.3 24.8 -3.0 12 14.7 SSW 11 19 6 10 1014.5 1013.7 0.0
18/05:00pm 29.5 24.2 -4.0 11 15.0 S 15 26 8 14 1014.7 1013.9 0.0
18/04:30pm 29.3 25.0 -1.9 13 14.5 WSW 11 19 6 10 1014.9 1014.1 0.0
18/04:00pm 29.4 23.5 -1.9 13 14.5 SW 19 30 10 16 1015.3 1014.5 0.0
18/03:30pm 29.5 24.9 -0.8 14 14.4 SW 13 24 7 13 1015.6 1014.8 0.0
18/03:00pm 28.2 23.7 0.0 16 13.4 SSW 13 24 7 13 1016.1 1015.3 0.0
18/02:30pm 28.7 24.3 0.4 16 13.6 SSE 13 26 7 14 1016.5 1015.7 0.0
18/02:00pm 28.0 22.9 -2.0 14 13.7 S 15 26 8 14 1016.9 1016.1 0.0
18/01:30pm 27.4 23.7 0.2 17 12.9 ESE 9 15 5 8 1017.4 1016.6 0.0
18/01:00pm 26.9 23.3 0.6 18 12.5 S 9 17 5 9 1017.7 1016.9 0.0
18/12:30pm 26.5 22.3 1.7 20 12.0 S 13 28 7 15 1018.2 1017.4 0.0
18/12:00pm 26.0 21.0 1.3 20 11.8 SSW 17 32 9 17 1018.7 1017.9 0.0
18/11:30am 25.6 22.6 2.3 22 11.4 W 7 17 4 9 1019.1 1018.3 0.0

Other formats

Comma delimited format used in spreadsheet applications
http://www.bom.gov.au/fwo/IDN60801/IDN60801.95710.axf

JavaScript Object Notation format (JSON) in row-major order
http://www.bom.gov.au/fwo/IDN60801/IDN60801.95710.json

Data quality

Most of these data are generated automatically and are frequently updated. Quality checks on data are not normally performed. It is possible for incorrect values to appear. Refer to information at About Latest Weather Observations and please check the disclaimer before using these data.